aviador You're here:

KGRI Decoded Metar

GRAND ISLAND in NE, USA
Report Time2017-07-23 07:53:00
UTC Time2017-07-23 08:39:37
Flight Rules vfr VFR
WindCalm
Visibility9999 m
Phenomena:N/A
Clouds:N/A
CeilingNone
Temp19°C (ISA +8)
Dew Point19°C (100% RH)
QNH1015 hPa
Density Alt2,969 ft
Elevation1,841 ft
Report Wrong Elevation
Raw Report
KGRI 230753Z AUTO 00000KT 7SM CLR 19/19 A2997 RMK AO2 SLP139
T01890189=

Extra information for KGRI:More info

Metar Taf Metar & Taf Last 4 Metars F.Rules Stats Wind Profile Meteogram Temp Stats Airport Information Weather charts Add Link Nearby VenuesMetar ALERT Operation Metar Decoded Social comments

AIRNAV info for KGRI